sensor_id;sensor_type;location;lat;lon;timestamp;pressure;altitude;pressure_sealevel;temperature;humidity
24302;BME280;12421;49.732;20.078;2023-02-26T00:04:30;95509.33;;;2.26;76.49
24302;BME280;12421;49.732;20.078;2023-02-26T00:14:34;95527.31;;;2.31;76.70
24302;BME280;12421;49.732;20.078;2023-02-26T00:24:37;95545.30;;;2.35;77.20
24302;BME280;12421;49.732;20.078;2023-02-26T00:34:41;95548.61;;;2.29;77.15
24302;BME280;12421;49.732;20.078;2023-02-26T00:44:44;95577.88;;;2.28;77.37
24302;BME280;12421;49.732;20.078;2023-02-26T00:54:49;95575.12;;;2.15;77.44
24302;BME280;12421;49.732;20.078;2023-02-26T01:04:55;95572.17;;;1.96;77.70
24302;BME280;12421;49.732;20.078;2023-02-26T01:14:58;95566.46;;;1.83;77.63
24302;BME280;12421;49.732;20.078;2023-02-26T01:25:11;95537.21;;;1.79;77.03
24302;BME280;12421;49.732;20.078;2023-02-26T01:56:20;95588.20;;;1.56;76.09
24302;BME280;12421;49.732;20.078;2023-02-26T02:06:25;95610.33;;;1.49;76.25
24302;BME280;12421;49.732;20.078;2023-02-26T02:27:07;95625.57;;;1.56;76.46
24302;BME280;12421;49.732;20.078;2023-02-26T02:37:29;95644.06;;;1.56;76.56
24302;BME280;12421;49.732;20.078;2023-02-26T02:47:37;95668.10;;;1.57;76.23
24302;BME280;12421;49.732;20.078;2023-02-26T03:08:15;95629.53;;;1.51;75.91
24302;BME280;12421;49.732;20.078;2023-02-26T03:29:12;95698.70;;;1.49;75.06
24302;BME280;12421;49.732;20.078;2023-02-26T03:39:30;95719.98;;;1.58;75.34
24302;BME280;12421;49.732;20.078;2023-02-26T03:49:40;95726.38;;;1.58;75.46
24302;BME280;12421;49.732;20.078;2023-02-26T03:59:45;95721.48;;;1.44;73.95
24302;BME280;12421;49.732;20.078;2023-02-26T04:10:43;95761.92;;;1.39;74.29
24302;BME280;12421;49.732;20.078;2023-02-26T04:20:48;95787.77;;;1.27;74.32
24302;BME280;12421;49.732;20.078;2023-02-26T04:30:51;95786.73;;;1.27;74.03
24302;BME280;12421;49.732;20.078;2023-02-26T04:40:55;95792.36;;;1.40;74.31
24302;BME280;12421;49.732;20.078;2023-02-26T04:51:00;95794.23;;;1.38;73.88
24302;BME280;12421;49.732;20.078;2023-02-26T05:01:04;95809.44;;;1.35;74.20
24302;BME280;12421;49.732;20.078;2023-02-26T05:11:09;95819.92;;;1.28;73.89
24302;BME280;12421;49.732;20.078;2023-02-26T05:21:12;95821.73;;;1.13;73.51
24302;BME280;12421;49.732;20.078;2023-02-26T05:31:16;95819.35;;;0.96;72.78
24302;BME280;12421;49.732;20.078;2023-02-26T05:41:19;95856.94;;;0.88;73.57
24302;BME280;12421;49.732;20.078;2023-02-26T05:51:22;95894.84;;;0.78;73.17
24302;BME280;12421;49.732;20.078;2023-02-26T06:01:26;95934.80;;;0.66;72.90
24302;BME280;12421;49.732;20.078;2023-02-26T06:11:29;95950.44;;;0.59;72.58
24302;BME280;12421;49.732;20.078;2023-02-26T06:21:35;95974.45;;;0.60;72.64
24302;BME280;12421;49.732;20.078;2023-02-26T06:31:38;95973.32;;;0.68;71.99
24302;BME280;12421;49.732;20.078;2023-02-26T06:41:42;95986.29;;;0.84;71.04
24302;BME280;12421;49.732;20.078;2023-02-26T06:51:45;95995.63;;;0.86;70.34
24302;BME280;12421;49.732;20.078;2023-02-26T07:01:48;96005.36;;;1.21;71.26
24302;BME280;12421;49.732;20.078;2023-02-26T07:11:52;96032.22;;;1.28;70.28
24302;BME280;12421;49.732;20.078;2023-02-26T07:21:56;96033.68;;;1.19;69.82
24302;BME280;12421;49.732;20.078;2023-02-26T07:31:59;96046.70;;;1.41;70.01
24302;BME280;12421;49.732;20.078;2023-02-26T07:42:03;96079.43;;;1.46;68.98
24302;BME280;12421;49.732;20.078;2023-02-26T07:52:08;96100.49;;;1.60;68.12
24302;BME280;12421;49.732;20.078;2023-02-26T08:02:12;96110.35;;;1.60;67.70
24302;BME280;12421;49.732;20.078;2023-02-26T08:12:15;96115.21;;;1.98;67.30
24302;BME280;12421;49.732;20.078;2023-02-26T08:22:19;96116.48;;;2.48;66.05
24302;BME280;12421;49.732;20.078;2023-02-26T08:32:24;96126.48;;;2.64;65.01
24302;BME280;12421;49.732;20.078;2023-02-26T08:42:30;96145.32;;;2.85;64.48
24302;BME280;12421;49.732;20.078;2023-02-26T08:52:33;96173.02;;;2.79;62.74
24302;BME280;12421;49.732;20.078;2023-02-26T09:02:37;96186.02;;;2.58;62.35
24302;BME280;12421;49.732;20.078;2023-02-26T09:12:42;96188.76;;;3.04;62.13
24302;BME280;12421;49.732;20.078;2023-02-26T09:22:45;96190.84;;;3.74;62.19
24302;BME280;12421;49.732;20.078;2023-02-26T09:32:49;96223.66;;;3.41;62.92
24302;BME280;12421;49.732;20.078;2023-02-26T09:53:04;96236.02;;;3.20;64.92
24302;BME280;12421;49.732;20.078;2023-02-26T10:13:45;96262.95;;;3.27;63.11
24302;BME280;12421;49.732;20.078;2023-02-26T10:24:03;96281.17;;;3.03;63.78
24302;BME280;12421;49.732;20.078;2023-02-26T10:34:20;96294.55;;;3.07;63.57
24302;BME280;12421;49.732;20.078;2023-02-26T10:44:35;96302.84;;;3.26;63.75
24302;BME280;12421;49.732;20.078;2023-02-26T11:04:50;96307.63;;;4.04;62.37
24302;BME280;12421;49.732;20.078;2023-02-26T11:15:18;96315.88;;;4.26;61.00
24302;BME280;12421;49.732;20.078;2023-02-26T11:25:23;96331.41;;;4.47;59.73
24302;BME280;12421;49.732;20.078;2023-02-26T11:35:27;96341.84;;;4.04;58.37
24302;BME280;12421;49.732;20.078;2023-02-26T11:45:34;96346.27;;;3.89;58.23
24302;BME280;12421;49.732;20.078;2023-02-26T11:55:43;96369.52;;;3.60;59.70
24302;BME280;12421;49.732;20.078;2023-02-26T12:05:49;96389.14;;;2.99;62.96
24302;BME280;12421;49.732;20.078;2023-02-26T12:47:42;96413.94;;;3.36;61.39
24302;BME280;12421;49.732;20.078;2023-02-26T14:10:23;96518.86;;;1.78;65.74
24302;BME280;12421;49.732;20.078;2023-02-26T14:20:29;96523.55;;;1.69;65.64
24302;BME280;12421;49.732;20.078;2023-02-26T14:30:33;96545.25;;;1.43;65.88
24302;BME280;12421;49.732;20.078;2023-02-26T14:40:50;96547.30;;;1.24;66.51
24302;BME280;12421;49.732;20.078;2023-02-26T15:02:00;96571.94;;;0.60;68.52
24302;BME280;12421;49.732;20.078;2023-02-26T15:12:18;96593.84;;;0.20;70.48
24302;BME280;12421;49.732;20.078;2023-02-26T15:32:59;96649.22;;;-0.21;70.34
24302;BME280;12421;49.732;20.078;2023-02-26T15:43:04;96656.80;;;-0.09;70.71
24302;BME280;12421;49.732;20.078;2023-02-26T15:53:12;96658.98;;;0.03;70.02
24302;BME280;12421;49.732;20.078;2023-02-26T16:03:24;96675.02;;;-0.04;69.62
24302;BME280;12421;49.732;20.078;2023-02-26T16:13:34;96688.64;;;-0.18;69.80
24302;BME280;12421;49.732;20.078;2023-02-26T16:23:47;96707.70;;;-0.21;69.56
24302;BME280;12421;49.732;20.078;2023-02-26T16:33:56;96726.44;;;-0.30;69.66
24302;BME280;12421;49.732;20.078;2023-02-26T16:54:37;96755.36;;;-0.37;68.54
24302;BME280;12421;49.732;20.078;2023-02-26T17:04:42;96776.68;;;-0.34;68.92
24302;BME280;12421;49.732;20.078;2023-02-26T17:14:59;96787.45;;;-0.19;68.74
24302;BME280;12421;49.732;20.078;2023-02-26T17:25:05;96807.97;;;-0.19;68.52
24302;BME280;12421;49.732;20.078;2023-02-26T17:35:12;96830.70;;;-0.20;69.09
24302;BME280;12421;49.732;20.078;2023-02-26T17:45:16;96835.84;;;-0.33;68.50
24302;BME280;12421;49.732;20.078;2023-02-26T17:55:21;96829.35;;;-0.43;68.55
24302;BME280;12421;49.732;20.078;2023-02-26T18:05:26;96836.55;;;-0.33;69.70
24302;BME280;12421;49.732;20.078;2023-02-26T18:15:32;96838.57;;;-0.22;69.76
24302;BME280;12421;49.732;20.078;2023-02-26T18:25:35;96852.75;;;-0.27;69.45
24302;BME280;12421;49.732;20.078;2023-02-26T18:35:39;96865.69;;;-0.38;69.44
24302;BME280;12421;49.732;20.078;2023-02-26T18:45:49;96882.50;;;-0.41;69.64
24302;BME280;12421;49.732;20.078;2023-02-26T18:55:53;96890.55;;;-0.48;70.07
24302;BME280;12421;49.732;20.078;2023-02-26T19:05:59;96899.48;;;-0.50;70.31
24302;BME280;12421;49.732;20.078;2023-02-26T19:16:04;96919.75;;;-0.57;70.01
24302;BME280;12421;49.732;20.078;2023-02-26T19:26:09;96910.84;;;-0.62;70.49
24302;BME280;12421;49.732;20.078;2023-02-26T19:36:12;96905.41;;;-0.59;70.53
24302;BME280;12421;49.732;20.078;2023-02-26T19:46:17;96919.50;;;-0.55;70.55
24302;BME280;12421;49.732;20.078;2023-02-26T19:56:21;96935.77;;;-0.48;70.24
24302;BME280;12421;49.732;20.078;2023-02-26T20:06:26;96947.05;;;-0.39;69.68
24302;BME280;12421;49.732;20.078;2023-02-26T20:16:30;96946.11;;;-0.42;68.36
24302;BME280;12421;49.732;20.078;2023-02-26T20:26:34;96960.89;;;-0.59;67.83
24302;BME280;12421;49.732;20.078;2023-02-26T20:36:39;96969.21;;;-0.58;67.65
24302;BME280;12421;49.732;20.078;2023-02-26T20:46:46;96977.30;;;-0.58;67.18
24302;BME280;12421;49.732;20.078;2023-02-26T20:56:49;96984.30;;;-0.55;67.42
24302;BME280;12421;49.732;20.078;2023-02-26T21:06:54;96990.17;;;-0.50;67.66
24302;BME280;12421;49.732;20.078;2023-02-26T21:17:14;96997.95;;;-0.49;67.13
24302;BME280;12421;49.732;20.078;2023-02-26T21:27:18;97010.43;;;-0.42;67.39
24302;BME280;12421;49.732;20.078;2023-02-26T21:37:22;97015.05;;;-0.53;66.71
24302;BME280;12421;49.732;20.078;2023-02-26T21:47:26;97021.44;;;-0.53;66.89
24302;BME280;12421;49.732;20.078;2023-02-26T21:57:30;97030.56;;;-0.48;66.86
24302;BME280;12421;49.732;20.078;2023-02-26T22:07:39;97039.63;;;-0.40;67.34
24302;BME280;12421;49.732;20.078;2023-02-26T22:17:43;97035.64;;;-0.47;66.63
24302;BME280;12421;49.732;20.078;2023-02-26T22:27:46;97038.96;;;-0.50;66.16
24302;BME280;12421;49.732;20.078;2023-02-26T22:37:51;97058.23;;;-0.56;66.16
24302;BME280;12421;49.732;20.078;2023-02-26T22:47:55;97071.69;;;-0.51;66.35
24302;BME280;12421;49.732;20.078;2023-02-26T22:57:58;97085.27;;;-0.62;66.19
24302;BME280;12421;49.732;20.078;2023-02-26T23:08:03;97081.03;;;-0.55;66.73
24302;BME280;12421;49.732;20.078;2023-02-26T23:18:06;97094.77;;;-0.52;66.66
24302;BME280;12421;49.732;20.078;2023-02-26T23:28:10;97104.40;;;-0.47;67.15
24302;BME280;12421;49.732;20.078;2023-02-26T23:38:13;97102.10;;;-0.44;67.51
24302;BME280;12421;49.732;20.078;2023-02-26T23:48:18;97093.73;;;-0.46;67.51
24302;BME280;12421;49.732;20.078;2023-02-26T23:58:27;97098.89;;;-0.37;67.13
